sensor_id;sensor_type;location;lat;lon;timestamp;P1;durP1;ratioP1;P2;durP2;ratioP2
62832;SDS011;48891;49.220;6.920;2023-01-15T00:00:07;15.18;;;12.45;;
62832;SDS011;48891;49.220;6.920;2023-01-15T00:02:32;16.85;;;13.23;;
62832;SDS011;48891;49.220;6.920;2023-01-15T00:04:58;15.30;;;12.05;;
62832;SDS011;48891;49.220;6.920;2023-01-15T00:07:23;14.68;;;12.23;;
62832;SDS011;48891;49.220;6.920;2023-01-15T00:09:48;13.70;;;11.88;;
62832;SDS011;48891;49.220;6.920;2023-01-15T00:12:14;14.27;;;12.02;;
62832;SDS011;48891;49.220;6.920;2023-01-15T00:14:39;14.85;;;12.57;;
62832;SDS011;48891;49.220;6.920;2023-01-15T00:17:05;14.70;;;11.15;;
62832;SDS011;48891;49.220;6.920;2023-01-15T00:19:30;14.70;;;12.00;;
62832;SDS011;48891;49.220;6.920;2023-01-15T00:21:56;14.80;;;11.88;;
62832;SDS011;48891;49.220;6.920;2023-01-15T00:24:21;15.10;;;12.23;;
62832;SDS011;48891;49.220;6.920;2023-01-15T00:26:46;13.73;;;12.15;;
62832;SDS011;48891;49.220;6.920;2023-01-15T00:29:11;14.95;;;12.38;;
62832;SDS011;48891;49.220;6.920;2023-01-15T00:31:37;14.73;;;12.98;;
62832;SDS011;48891;49.220;6.920;2023-01-15T00:34:02;14.18;;;11.20;;
62832;SDS011;48891;49.220;6.920;2023-01-15T00:36:27;14.98;;;11.30;;
62832;SDS011;48891;49.220;6.920;2023-01-15T00:38:53;13.30;;;10.93;;
62832;SDS011;48891;49.220;6.920;2023-01-15T00:41:18;14.07;;;11.98;;
62832;SDS011;48891;49.220;6.920;2023-01-15T00:43:43;14.88;;;12.27;;
62832;SDS011;48891;49.220;6.920;2023-01-15T00:46:09;14.52;;;11.80;;
62832;SDS011;48891;49.220;6.920;2023-01-15T00:48:35;14.65;;;11.90;;
62832;SDS011;48891;49.220;6.920;2023-01-15T00:51:00;13.52;;;11.27;;
62832;SDS011;48891;49.220;6.920;2023-01-15T00:53:26;14.52;;;11.63;;
62832;SDS011;48891;49.220;6.920;2023-01-15T00:55:51;13.95;;;11.55;;
62832;SDS011;48891;49.220;6.920;2023-01-15T00:58:16;14.27;;;11.25;;
62832;SDS011;48891;49.220;6.920;2023-01-15T01:00:42;14.45;;;11.75;;
62832;SDS011;48891;49.220;6.920;2023-01-15T01:03:07;14.15;;;11.60;;
62832;SDS011;48891;49.220;6.920;2023-01-15T01:05:32;14.57;;;11.60;;
62832;SDS011;48891;49.220;6.920;2023-01-15T01:07:58;13.48;;;11.20;;
62832;SDS011;48891;49.220;6.920;2023-01-15T01:10:23;14.90;;;11.30;;
62832;SDS011;48891;49.220;6.920;2023-01-15T01:12:49;14.57;;;11.68;;
62832;SDS011;48891;49.220;6.920;2023-01-15T01:15:14;11.90;;;10.45;;
62832;SDS011;48891;49.220;6.920;2023-01-15T01:17:39;12.48;;;11.18;;
62832;SDS011;48891;49.220;6.920;2023-01-15T01:20:05;13.15;;;10.50;;
62832;SDS011;48891;49.220;6.920;2023-01-15T01:22:30;14.38;;;11.07;;
62832;SDS011;48891;49.220;6.920;2023-01-15T01:24:56;13.05;;;11.32;;
62832;SDS011;48891;49.220;6.920;2023-01-15T01:27:21;12.00;;;10.02;;
62832;SDS011;48891;49.220;6.920;2023-01-15T01:29:46;12.40;;;10.10;;
62832;SDS011;48891;49.220;6.920;2023-01-15T01:32:11;11.73;;;10.52;;
62832;SDS011;48891;49.220;6.920;2023-01-15T01:34:36;12.57;;;10.75;;
62832;SDS011;48891;49.220;6.920;2023-01-15T01:37:02;12.43;;;10.82;;
62832;SDS011;48891;49.220;6.920;2023-01-15T01:39:27;12.60;;;10.15;;
62832;SDS011;48891;49.220;6.920;2023-01-15T01:41:52;12.25;;;10.40;;
62832;SDS011;48891;49.220;6.920;2023-01-15T01:45:05;12.50;;;10.25;;
62832;SDS011;48891;49.220;6.920;2023-01-15T01:47:07;12.57;;;11.23;;
62832;SDS011;48891;49.220;6.920;2023-01-15T01:49:35;10.98;;;9.88;;
62832;SDS011;48891;49.220;6.920;2023-01-15T01:52:05;11.63;;;9.73;;
62832;SDS011;48891;49.220;6.920;2023-01-15T01:54:32;12.18;;;10.10;;
62832;SDS011;48891;49.220;6.920;2023-01-15T01:57:02;12.70;;;10.32;;
62832;SDS011;48891;49.220;6.920;2023-01-15T01:59:28;11.60;;;10.20;;
62832;SDS011;48891;49.220;6.920;2023-01-15T02:01:54;11.57;;;10.27;;
62832;SDS011;48891;49.220;6.920;2023-01-15T02:04:20;10.73;;;9.60;;
62832;SDS011;48891;49.220;6.920;2023-01-15T02:06:46;12.52;;;10.38;;
62832;SDS011;48891;49.220;6.920;2023-01-15T02:09:12;13.30;;;9.40;;
62832;SDS011;48891;49.220;6.920;2023-01-15T02:11:37;12.82;;;10.32;;
62832;SDS011;48891;49.220;6.920;2023-01-15T02:19:46;12.73;;;10.10;;
62832;SDS011;48891;49.220;6.920;2023-01-15T02:30:48;10.95;;;9.13;;
62832;SDS011;48891;49.220;6.920;2023-01-15T02:33:21;11.55;;;9.15;;
62832;SDS011;48891;49.220;6.920;2023-01-15T02:35:56;10.55;;;9.10;;
62832;SDS011;48891;49.220;6.920;2023-01-15T02:38:23;13.68;;;9.88;;
62832;SDS011;48891;49.220;6.920;2023-01-15T02:40:54;11.02;;;9.77;;
62832;SDS011;48891;49.220;6.920;2023-01-15T02:43:23;10.38;;;9.18;;
62832;SDS011;48891;49.220;6.920;2023-01-15T02:45:51;10.50;;;8.48;;
62832;SDS011;48891;49.220;6.920;2023-01-15T02:50:49;11.02;;;9.38;;
62832;SDS011;48891;49.220;6.920;2023-01-15T02:53:21;11.20;;;9.35;;
62832;SDS011;48891;49.220;6.920;2023-01-15T02:55:49;11.23;;;9.00;;
62832;SDS011;48891;49.220;6.920;2023-01-15T02:58:22;11.00;;;8.82;;
62832;SDS011;48891;49.220;6.920;2023-01-15T03:00:53;11.30;;;9.02;;
62832;SDS011;48891;49.220;6.920;2023-01-15T03:06:09;11.00;;;8.75;;
62832;SDS011;48891;49.220;6.920;2023-01-15T03:08:36;9.75;;;8.18;;
62832;SDS011;48891;49.220;6.920;2023-01-15T03:11:09;10.10;;;8.48;;
62832;SDS011;48891;49.220;6.920;2023-01-15T03:13:40;10.30;;;9.18;;
62832;SDS011;48891;49.220;6.920;2023-01-15T03:24:31;9.13;;;7.90;;
62832;SDS011;48891;49.220;6.920;2023-01-15T03:27:01;9.90;;;8.25;;
62832;SDS011;48891;49.220;6.920;2023-01-15T03:29:28;9.07;;;7.95;;
62832;SDS011;48891;49.220;6.920;2023-01-15T03:31:58;10.32;;;8.32;;
62832;SDS011;48891;49.220;6.920;2023-01-15T03:34:25;10.27;;;8.23;;
62832;SDS011;48891;49.220;6.920;2023-01-15T03:36:57;10.00;;;7.47;;
62832;SDS011;48891;49.220;6.920;2023-01-15T03:39:23;9.00;;;7.85;;
62832;SDS011;48891;49.220;6.920;2023-01-15T03:47:24;9.63;;;7.93;;
62832;SDS011;48891;49.220;6.920;2023-01-15T03:52:45;8.77;;;7.53;;
62832;SDS011;48891;49.220;6.920;2023-01-15T03:55:18;9.48;;;7.68;;
62832;SDS011;48891;49.220;6.920;2023-01-15T03:58:06;9.63;;;7.65;;
62832;SDS011;48891;49.220;6.920;2023-01-15T04:00:48;9.25;;;7.75;;
62832;SDS011;48891;49.220;6.920;2023-01-15T04:03:19;9.65;;;7.40;;
62832;SDS011;48891;49.220;6.920;2023-01-15T04:08:13;8.30;;;7.18;;
62832;SDS011;48891;49.220;6.920;2023-01-15T04:10:55;8.98;;;7.15;;
62832;SDS011;48891;49.220;6.920;2023-01-15T04:13:22;10.20;;;7.85;;
62832;SDS011;48891;49.220;6.920;2023-01-15T04:15:48;8.48;;;6.97;;
62832;SDS011;48891;49.220;6.920;2023-01-15T04:18:14;7.97;;;6.95;;
62832;SDS011;48891;49.220;6.920;2023-01-15T04:20:39;8.57;;;7.10;;
62832;SDS011;48891;49.220;6.920;2023-01-15T04:23:04;8.60;;;7.10;;
62832;SDS011;48891;49.220;6.920;2023-01-15T04:25:30;9.43;;;7.65;;
62832;SDS011;48891;49.220;6.920;2023-01-15T04:27:55;7.70;;;6.38;;
62832;SDS011;48891;49.220;6.920;2023-01-15T04:30:20;8.25;;;7.20;;
62832;SDS011;48891;49.220;6.920;2023-01-15T04:32:49;9.27;;;6.90;;
62832;SDS011;48891;49.220;6.920;2023-01-15T04:35:16;7.85;;;6.70;;
62832;SDS011;48891;49.220;6.920;2023-01-15T04:37:42;8.93;;;7.35;;
62832;SDS011;48891;49.220;6.920;2023-01-15T04:40:08;8.55;;;6.75;;
62832;SDS011;48891;49.220;6.920;2023-01-15T04:42:34;8.50;;;6.60;;
62832;SDS011;48891;49.220;6.920;2023-01-15T04:44:59;7.82;;;6.18;;
62832;SDS011;48891;49.220;6.920;2023-01-15T04:47:24;8.25;;;6.55;;
62832;SDS011;48891;49.220;6.920;2023-01-15T04:49:50;8.30;;;6.47;;
62832;SDS011;48891;49.220;6.920;2023-01-15T04:52:15;7.65;;;6.00;;
62832;SDS011;48891;49.220;6.920;2023-01-15T04:54:40;7.25;;;6.45;;
62832;SDS011;48891;49.220;6.920;2023-01-15T04:57:06;7.93;;;6.90;;
62832;SDS011;48891;49.220;6.920;2023-01-15T04:59:31;9.27;;;6.97;;
62832;SDS011;48891;49.220;6.920;2023-01-15T05:01:57;8.38;;;6.53;;
62832;SDS011;48891;49.220;6.920;2023-01-15T05:04:22;8.80;;;6.57;;
62832;SDS011;48891;49.220;6.920;2023-01-15T05:06:47;8.57;;;7.03;;
62832;SDS011;48891;49.220;6.920;2023-01-15T05:09:12;8.50;;;6.38;;
62832;SDS011;48891;49.220;6.920;2023-01-15T05:11:38;9.43;;;7.43;;
62832;SDS011;48891;49.220;6.920;2023-01-15T05:14:04;7.90;;;6.68;;
62832;SDS011;48891;49.220;6.920;2023-01-15T05:16:30;9.35;;;6.78;;
62832;SDS011;48891;49.220;6.920;2023-01-15T05:18:57;8.23;;;6.70;;
62832;SDS011;48891;49.220;6.920;2023-01-15T05:21:28;8.27;;;7.13;;
62832;SDS011;48891;49.220;6.920;2023-01-15T05:23:55;7.82;;;6.57;;
62832;SDS011;48891;49.220;6.920;2023-01-15T05:26:22;8.85;;;7.38;;
62832;SDS011;48891;49.220;6.920;2023-01-15T05:28:48;7.65;;;6.85;;
62832;SDS011;48891;49.220;6.920;2023-01-15T05:31:17;10.02;;;7.85;;
62832;SDS011;48891;49.220;6.920;2023-01-15T05:33:43;8.95;;;6.80;;
62832;SDS011;48891;49.220;6.920;2023-01-15T05:36:10;8.63;;;6.45;;
62832;SDS011;48891;49.220;6.920;2023-01-15T05:38:37;8.93;;;7.00;;
62832;SDS011;48891;49.220;6.920;2023-01-15T05:41:06;8.65;;;7.30;;
62832;SDS011;48891;49.220;6.920;2023-01-15T05:43:33;8.25;;;7.00;;
62832;SDS011;48891;49.220;6.920;2023-01-15T05:46:00;8.82;;;7.18;;
62832;SDS011;48891;49.220;6.920;2023-01-15T05:48:26;9.70;;;7.23;;
62832;SDS011;48891;49.220;6.920;2023-01-15T05:50:51;8.52;;;7.05;;
62832;SDS011;48891;49.220;6.920;2023-01-15T05:53:16;7.40;;;6.57;;
62832;SDS011;48891;49.220;6.920;2023-01-15T05:55:42;10.38;;;7.45;;
62832;SDS011;48891;49.220;6.920;2023-01-15T05:58:07;9.90;;;6.85;;
62832;SDS011;48891;49.220;6.920;2023-01-15T06:00:32;8.55;;;6.60;;
62832;SDS011;48891;49.220;6.920;2023-01-15T06:02:57;9.07;;;7.40;;
62832;SDS011;48891;49.220;6.920;2023-01-15T06:05:23;9.18;;;6.80;;
62832;SDS011;48891;49.220;6.920;2023-01-15T06:07:48;8.82;;;7.22;;
62832;SDS011;48891;49.220;6.920;2023-01-15T06:10:15;9.43;;;7.50;;
62832;SDS011;48891;49.220;6.920;2023-01-15T06:12:41;9.32;;;7.78;;
62832;SDS011;48891;49.220;6.920;2023-01-15T06:15:06;9.93;;;7.40;;
62832;SDS011;48891;49.220;6.920;2023-01-15T06:17:32;8.95;;;7.22;;
62832;SDS011;48891;49.220;6.920;2023-01-15T06:19:57;9.73;;;7.65;;
62832;SDS011;48891;49.220;6.920;2023-01-15T06:22:22;10.13;;;7.15;;
62832;SDS011;48891;49.220;6.920;2023-01-15T06:24:47;10.63;;;7.68;;
62832;SDS011;48891;49.220;6.920;2023-01-15T06:27:12;8.75;;;7.38;;
62832;SDS011;48891;49.220;6.920;2023-01-15T06:29:38;9.52;;;7.55;;
62832;SDS011;48891;49.220;6.920;2023-01-15T06:32:03;8.82;;;7.18;;
62832;SDS011;48891;49.220;6.920;2023-01-15T06:34:28;9.43;;;7.45;;
62832;SDS011;48891;49.220;6.920;2023-01-15T06:36:54;8.80;;;6.93;;
62832;SDS011;48891;49.220;6.920;2023-01-15T06:39:19;8.35;;;7.32;;
62832;SDS011;48891;49.220;6.920;2023-01-15T06:41:44;10.63;;;7.70;;
62832;SDS011;48891;49.220;6.920;2023-01-15T06:44:10;9.23;;;7.38;;
62832;SDS011;48891;49.220;6.920;2023-01-15T06:46:42;10.40;;;7.57;;
62832;SDS011;48891;49.220;6.920;2023-01-15T06:49:09;10.18;;;7.82;;
62832;SDS011;48891;49.220;6.920;2023-01-15T06:51:34;9.88;;;7.75;;
62832;SDS011;48891;49.220;6.920;2023-01-15T06:53:59;9.23;;;7.57;;
62832;SDS011;48891;49.220;6.920;2023-01-15T06:56:24;9.25;;;7.90;;
62832;SDS011;48891;49.220;6.920;2023-01-15T06:58:50;9.35;;;7.40;;
62832;SDS011;48891;49.220;6.920;2023-01-15T07:01:15;9.52;;;7.53;;
62832;SDS011;48891;49.220;6.920;2023-01-15T07:03:40;10.73;;;7.63;;
62832;SDS011;48891;49.220;6.920;2023-01-15T07:06:06;9.75;;;7.53;;
62832;SDS011;48891;49.220;6.920;2023-01-15T07:08:36;10.55;;;7.72;;
62832;SDS011;48891;49.220;6.920;2023-01-15T07:11:05;10.52;;;7.50;;
62832;SDS011;48891;49.220;6.920;2023-01-15T07:13:32;10.20;;;7.65;;
62832;SDS011;48891;49.220;6.920;2023-01-15T07:15:58;9.75;;;7.80;;
62832;SDS011;48891;49.220;6.920;2023-01-15T07:18:26;9.55;;;7.70;;
62832;SDS011;48891;49.220;6.920;2023-01-15T07:20:56;10.73;;;8.50;;
62832;SDS011;48891;49.220;6.920;2023-01-15T07:23:23;10.93;;;7.57;;
62832;SDS011;48891;49.220;6.920;2023-01-15T07:25:51;9.45;;;7.57;;
62832;SDS011;48891;49.220;6.920;2023-01-15T07:28:17;10.35;;;8.27;;
62832;SDS011;48891;49.220;6.920;2023-01-15T07:30:42;10.88;;;8.65;;
62832;SDS011;48891;49.220;6.920;2023-01-15T07:33:07;10.90;;;8.43;;
62832;SDS011;48891;49.220;6.920;2023-01-15T07:35:34;10.70;;;8.07;;
62832;SDS011;48891;49.220;6.920;2023-01-15T07:37:59;10.15;;;7.90;;
62832;SDS011;48891;49.220;6.920;2023-01-15T07:40:24;12.38;;;8.38;;
62832;SDS011;48891;49.220;6.920;2023-01-15T07:42:50;10.85;;;8.23;;
62832;SDS011;48891;49.220;6.920;2023-01-15T07:45:15;10.57;;;8.40;;
62832;SDS011;48891;49.220;6.920;2023-01-15T07:47:40;10.13;;;8.10;;
62832;SDS011;48891;49.220;6.920;2023-01-15T07:50:06;10.02;;;8.07;;
62832;SDS011;48891;49.220;6.920;2023-01-15T07:52:41;10.98;;;8.40;;
62832;SDS011;48891;49.220;6.920;2023-01-15T07:55:07;10.63;;;8.38;;
62832;SDS011;48891;49.220;6.920;2023-01-15T07:57:33;8.88;;;7.75;;
62832;SDS011;48891;49.220;6.920;2023-01-15T07:59:59;10.70;;;8.57;;
62832;SDS011;48891;49.220;6.920;2023-01-15T08:02:24;12.13;;;8.55;;
62832;SDS011;48891;49.220;6.920;2023-01-15T08:04:49;11.40;;;8.45;;
62832;SDS011;48891;49.220;6.920;2023-01-15T08:07:15;10.18;;;8.55;;
62832;SDS011;48891;49.220;6.920;2023-01-15T08:09:40;11.43;;;8.90;;
62832;SDS011;48891;49.220;6.920;2023-01-15T08:12:06;12.32;;;8.93;;
62832;SDS011;48891;49.220;6.920;2023-01-15T08:14:32;11.05;;;9.27;;
62832;SDS011;48891;49.220;6.920;2023-01-15T08:16:57;11.40;;;8.82;;
62832;SDS011;48891;49.220;6.920;2023-01-15T08:19:22;10.90;;;8.50;;
62832;SDS011;48891;49.220;6.920;2023-01-15T08:21:48;10.93;;;8.55;;
62832;SDS011;48891;49.220;6.920;2023-01-15T08:24:13;10.35;;;8.25;;
62832;SDS011;48891;49.220;6.920;2023-01-15T08:26:38;13.15;;;9.43;;
62832;SDS011;48891;49.220;6.920;2023-01-15T08:29:03;12.48;;;9.40;;
62832;SDS011;48891;49.220;6.920;2023-01-15T08:31:29;10.63;;;8.60;;
62832;SDS011;48891;49.220;6.920;2023-01-15T08:33:54;11.43;;;9.30;;
62832;SDS011;48891;49.220;6.920;2023-01-15T08:36:19;11.88;;;9.00;;
62832;SDS011;48891;49.220;6.920;2023-01-15T08:38:47;11.45;;;9.13;;
62832;SDS011;48891;49.220;6.920;2023-01-15T08:41:13;11.43;;;8.85;;
62832;SDS011;48891;49.220;6.920;2023-01-15T08:43:38;10.27;;;8.50;;
62832;SDS011;48891;49.220;6.920;2023-01-15T08:46:04;11.63;;;8.93;;
62832;SDS011;48891;49.220;6.920;2023-01-15T08:48:30;11.55;;;9.02;;
62832;SDS011;48891;49.220;6.920;2023-01-15T08:50:56;11.88;;;9.00;;
62832;SDS011;48891;49.220;6.920;2023-01-15T08:53:22;10.80;;;8.73;;
62832;SDS011;48891;49.220;6.920;2023-01-15T08:55:47;10.85;;;8.88;;
62832;SDS011;48891;49.220;6.920;2023-01-15T08:58:13;11.43;;;8.82;;
62832;SDS011;48891;49.220;6.920;2023-01-15T09:00:39;11.63;;;8.65;;
62832;SDS011;48891;49.220;6.920;2023-01-15T09:03:04;12.25;;;9.45;;
62832;SDS011;48891;49.220;6.920;2023-01-15T09:05:29;10.05;;;8.48;;
62832;SDS011;48891;49.220;6.920;2023-01-15T09:07:54;10.40;;;8.55;;
62832;SDS011;48891;49.220;6.920;2023-01-15T09:10:20;10.55;;;8.30;;
62832;SDS011;48891;49.220;6.920;2023-01-15T09:12:46;10.82;;;8.75;;
62832;SDS011;48891;49.220;6.920;2023-01-15T09:15:11;10.63;;;8.88;;
62832;SDS011;48891;49.220;6.920;2023-01-15T09:17:37;11.10;;;9.00;;
62832;SDS011;48891;49.220;6.920;2023-01-15T09:20:02;10.13;;;8.02;;
62832;SDS011;48891;49.220;6.920;2023-01-15T09:22:28;10.82;;;8.38;;
62832;SDS011;48891;49.220;6.920;2023-01-15T09:24:53;10.55;;;8.38;;
62832;SDS011;48891;49.220;6.920;2023-01-15T09:27:19;11.88;;;8.93;;
62832;SDS011;48891;49.220;6.920;2023-01-15T09:29:44;11.40;;;8.73;;
62832;SDS011;48891;49.220;6.920;2023-01-15T09:32:09;12.23;;;8.93;;
62832;SDS011;48891;49.220;6.920;2023-01-15T09:34:34;12.10;;;8.95;;
62832;SDS011;48891;49.220;6.920;2023-01-15T09:36:59;10.85;;;8.98;;
62832;SDS011;48891;49.220;6.920;2023-01-15T09:39:25;11.88;;;8.57;;
62832;SDS011;48891;49.220;6.920;2023-01-15T09:41:55;11.70;;;9.07;;
62832;SDS011;48891;49.220;6.920;2023-01-15T09:44:38;11.50;;;9.32;;
62832;SDS011;48891;49.220;6.920;2023-01-15T09:47:29;11.10;;;8.98;;
62832;SDS011;48891;49.220;6.920;2023-01-15T09:50:08;13.10;;;10.25;;
62832;SDS011;48891;49.220;6.920;2023-01-15T09:55:14;11.57;;;8.45;;
62832;SDS011;48891;49.220;6.920;2023-01-15T09:57:43;11.00;;;8.57;;
62832;SDS011;48891;49.220;6.920;2023-01-15T10:00:12;11.43;;;8.93;;
62832;SDS011;48891;49.220;6.920;2023-01-15T10:02:44;12.40;;;8.30;;
62832;SDS011;48891;49.220;6.920;2023-01-15T10:05:19;13.38;;;9.32;;
62832;SDS011;48891;49.220;6.920;2023-01-15T10:10:39;10.77;;;8.73;;
62832;SDS011;48891;49.220;6.920;2023-01-15T10:15:59;13.18;;;8.85;;
62832;SDS011;48891;49.220;6.920;2023-01-15T10:18:25;11.02;;;9.07;;
62832;SDS011;48891;49.220;6.920;2023-01-15T10:31:51;11.20;;;9.30;;
62832;SDS011;48891;49.220;6.920;2023-01-15T10:34:34;11.30;;;8.98;;
62832;SDS011;48891;49.220;6.920;2023-01-15T10:37:05;11.68;;;9.07;;
62832;SDS011;48891;49.220;6.920;2023-01-15T10:39:58;12.90;;;8.75;;
62832;SDS011;48891;49.220;6.920;2023-01-15T10:45:23;12.80;;;9.50;;
62832;SDS011;48891;49.220;6.920;2023-01-15T10:47:53;12.30;;;8.95;;
62832;SDS011;48891;49.220;6.920;2023-01-15T10:50:24;12.50;;;9.57;;
62832;SDS011;48891;49.220;6.920;2023-01-15T10:55:44;11.77;;;9.55;;
62832;SDS011;48891;49.220;6.920;2023-01-15T11:00:53;13.05;;;10.02;;
62832;SDS011;48891;49.220;6.920;2023-01-15T11:03:28;13.43;;;10.15;;
62832;SDS011;48891;49.220;6.920;2023-01-15T11:05:59;11.77;;;9.65;;
62832;SDS011;48891;49.220;6.920;2023-01-15T11:08:25;12.23;;;9.90;;
62832;SDS011;48891;49.220;6.920;2023-01-15T11:10:50;11.20;;;9.27;;
62832;SDS011;48891;49.220;6.920;2023-01-15T11:15:48;12.98;;;10.07;;
62832;SDS011;48891;49.220;6.920;2023-01-15T11:18:16;12.98;;;9.93;;
62832;SDS011;48891;49.220;6.920;2023-01-15T11:20:48;12.52;;;10.20;;
62832;SDS011;48891;49.220;6.920;2023-01-15T11:23:17;13.63;;;10.55;;
62832;SDS011;48891;49.220;6.920;2023-01-15T11:25:55;14.55;;;10.50;;
62832;SDS011;48891;49.220;6.920;2023-01-15T11:31:02;12.95;;;10.10;;
62832;SDS011;48891;49.220;6.920;2023-01-15T11:33:28;12.02;;;10.73;;
62832;SDS011;48891;49.220;6.920;2023-01-15T11:35:55;12.60;;;10.45;;
62832;SDS011;48891;49.220;6.920;2023-01-15T11:38:21;12.57;;;10.67;;
62832;SDS011;48891;49.220;6.920;2023-01-15T11:40:54;14.10;;;11.05;;
62832;SDS011;48891;49.220;6.920;2023-01-15T11:43:22;15.82;;;11.32;;
62832;SDS011;48891;49.220;6.920;2023-01-15T11:45:49;15.38;;;11.82;;
62832;SDS011;48891;49.220;6.920;2023-01-15T11:48:20;15.30;;;11.68;;
62832;SDS011;48891;49.220;6.920;2023-01-15T11:50:54;15.30;;;11.75;;
62832;SDS011;48891;49.220;6.920;2023-01-15T11:53:26;15.35;;;11.77;;
62832;SDS011;48891;49.220;6.920;2023-01-15T11:55:57;14.57;;;11.70;;
62832;SDS011;48891;49.220;6.920;2023-01-15T11:58:25;15.75;;;12.35;;
62832;SDS011;48891;49.220;6.920;2023-01-15T12:01:02;15.65;;;12.13;;
62832;SDS011;48891;49.220;6.920;2023-01-15T12:03:28;14.57;;;11.95;;
62832;SDS011;48891;49.220;6.920;2023-01-15T12:05:58;15.68;;;12.60;;
62832;SDS011;48891;49.220;6.920;2023-01-15T12:16:29;16.60;;;12.82;;
62832;SDS011;48891;49.220;6.920;2023-01-15T12:19:22;20.27;;;13.60;;
62832;SDS011;48891;49.220;6.920;2023-01-15T12:21:58;21.02;;;13.25;;
62832;SDS011;48891;49.220;6.920;2023-01-15T12:27:21;16.73;;;12.95;;
62832;SDS011;48891;49.220;6.920;2023-01-15T12:32:36;16.58;;;12.52;;
62832;SDS011;48891;49.220;6.920;2023-01-15T12:35:07;16.35;;;12.77;;
62832;SDS011;48891;49.220;6.920;2023-01-15T12:37:45;18.38;;;13.35;;
62832;SDS011;48891;49.220;6.920;2023-01-15T12:42:51;21.65;;;15.57;;
62832;SDS011;48891;49.220;6.920;2023-01-15T12:45:22;18.47;;;13.03;;
62832;SDS011;48891;49.220;6.920;2023-01-15T12:47:53;19.48;;;14.10;;
62832;SDS011;48891;49.220;6.920;2023-01-15T12:58:55;19.98;;;14.77;;
62832;SDS011;48891;49.220;6.920;2023-01-15T13:04:02;22.73;;;15.13;;
62832;SDS011;48891;49.220;6.920;2023-01-15T13:06:39;22.17;;;15.77;;
62832;SDS011;48891;49.220;6.920;2023-01-15T13:12:10;21.75;;;16.25;;
62832;SDS011;48891;49.220;6.920;2023-01-15T13:14:37;22.83;;;16.70;;
62832;SDS011;48891;49.220;6.920;2023-01-15T13:17:10;23.67;;;16.77;;
62832;SDS011;48891;49.220;6.920;2023-01-15T13:20:02;22.17;;;16.52;;
62832;SDS011;48891;49.220;6.920;2023-01-15T13:22:41;23.00;;;16.52;;
62832;SDS011;48891;49.220;6.920;2023-01-15T13:28:05;22.17;;;16.13;;
62832;SDS011;48891;49.220;6.920;2023-01-15T13:33:28;23.65;;;16.33;;
62832;SDS011;48891;49.220;6.920;2023-01-15T13:36:02;24.42;;;16.15;;
62832;SDS011;48891;49.220;6.920;2023-01-15T13:38:32;21.70;;;15.05;;
62832;SDS011;48891;49.220;6.920;2023-01-15T13:41:04;21.33;;;14.55;;
62832;SDS011;48891;49.220;6.920;2023-01-15T13:43:36;18.48;;;14.60;;
62832;SDS011;48891;49.220;6.920;2023-01-15T13:46:04;20.95;;;14.52;;
62832;SDS011;48891;49.220;6.920;2023-01-15T13:48:39;20.92;;;15.45;;
62832;SDS011;48891;49.220;6.920;2023-01-15T13:53:58;23.97;;;14.73;;
62832;SDS011;48891;49.220;6.920;2023-01-15T13:56:29;20.75;;;15.27;;
62832;SDS011;48891;49.220;6.920;2023-01-15T14:01:25;20.47;;;14.20;;
62832;SDS011;48891;49.220;6.920;2023-01-15T14:04:02;21.35;;;14.55;;
62832;SDS011;48891;49.220;6.920;2023-01-15T14:09:03;21.90;;;14.93;;
62832;SDS011;48891;49.220;6.920;2023-01-15T14:11:33;21.33;;;14.82;;
62832;SDS011;48891;49.220;6.920;2023-01-15T14:14:17;24.65;;;17.73;;
62832;SDS011;48891;49.220;6.920;2023-01-15T14:17:19;24.90;;;16.63;;
62832;SDS011;48891;49.220;6.920;2023-01-15T14:34:13;24.02;;;15.63;;
62832;SDS011;48891;49.220;6.920;2023-01-15T14:36:45;22.25;;;15.43;;
62832;SDS011;48891;49.220;6.920;2023-01-15T14:42:01;21.40;;;15.07;;
62832;SDS011;48891;49.220;6.920;2023-01-15T14:44:28;22.83;;;14.73;;
62832;SDS011;48891;49.220;6.920;2023-01-15T14:46:59;20.98;;;15.15;;
62832;SDS011;48891;49.220;6.920;2023-01-15T14:49:28;21.58;;;14.32;;
62832;SDS011;48891;49.220;6.920;2023-01-15T14:52:07;20.92;;;14.50;;
62832;SDS011;48891;49.220;6.920;2023-01-15T14:54:33;20.55;;;15.50;;
62832;SDS011;48891;49.220;6.920;2023-01-15T14:57:05;21.73;;;15.40;;
62832;SDS011;48891;49.220;6.920;2023-01-15T15:02:20;20.73;;;13.80;;
62832;SDS011;48891;49.220;6.920;2023-01-15T15:04:49;19.50;;;13.18;;
62832;SDS011;48891;49.220;6.920;2023-01-15T15:07:20;18.85;;;13.57;;
62832;SDS011;48891;49.220;6.920;2023-01-15T15:17:56;17.30;;;13.38;;
62832;SDS011;48891;49.220;6.920;2023-01-15T15:23:19;18.13;;;13.13;;
62832;SDS011;48891;49.220;6.920;2023-01-15T15:25:54;17.07;;;12.50;;
62832;SDS011;48891;49.220;6.920;2023-01-15T15:28:20;17.88;;;12.30;;
62832;SDS011;48891;49.220;6.920;2023-01-15T15:30:45;17.83;;;12.52;;
62832;SDS011;48891;49.220;6.920;2023-01-15T15:33:15;18.48;;;13.98;;
62832;SDS011;48891;49.220;6.920;2023-01-15T15:35:44;18.08;;;12.40;;
62832;SDS011;48891;49.220;6.920;2023-01-15T15:38:13;18.00;;;12.88;;
62832;SDS011;48891;49.220;6.920;2023-01-15T15:40:43;18.03;;;12.63;;
62832;SDS011;48891;49.220;6.920;2023-01-15T15:46:03;16.45;;;12.23;;
62832;SDS011;48891;49.220;6.920;2023-01-15T15:48:30;18.85;;;12.85;;
62832;SDS011;48891;49.220;6.920;2023-01-15T15:50:57;16.52;;;11.88;;
62832;SDS011;48891;49.220;6.920;2023-01-15T15:53:23;15.68;;;11.77;;
62832;SDS011;48891;49.220;6.920;2023-01-15T15:55:48;17.15;;;11.45;;
62832;SDS011;48891;49.220;6.920;2023-01-15T15:58:35;16.75;;;11.90;;
62832;SDS011;48891;49.220;6.920;2023-01-15T16:01:00;16.63;;;11.45;;
62832;SDS011;48891;49.220;6.920;2023-01-15T16:03:27;16.55;;;11.85;;
62832;SDS011;48891;49.220;6.920;2023-01-15T16:05:58;15.33;;;11.80;;
62832;SDS011;48891;49.220;6.920;2023-01-15T16:08:25;15.63;;;11.60;;
62832;SDS011;48891;49.220;6.920;2023-01-15T16:10:53;13.57;;;10.98;;
62832;SDS011;48891;49.220;6.920;2023-01-15T16:16:04;15.02;;;11.07;;
62832;SDS011;48891;49.220;6.920;2023-01-15T16:18:35;18.60;;;11.95;;
62832;SDS011;48891;49.220;6.920;2023-01-15T16:21:02;15.15;;;10.57;;
62832;SDS011;48891;49.220;6.920;2023-01-15T16:23:29;15.90;;;11.35;;
62832;SDS011;48891;49.220;6.920;2023-01-15T16:29:14;15.05;;;11.00;;
62832;SDS011;48891;49.220;6.920;2023-01-15T16:31:19;13.38;;;10.23;;
62832;SDS011;48891;49.220;6.920;2023-01-15T16:33:44;15.23;;;11.20;;
62832;SDS011;48891;49.220;6.920;2023-01-15T16:36:11;13.90;;;10.70;;
62832;SDS011;48891;49.220;6.920;2023-01-15T16:38:39;14.43;;;11.00;;
62832;SDS011;48891;49.220;6.920;2023-01-15T16:41:14;14.68;;;10.73;;
62832;SDS011;48891;49.220;6.920;2023-01-15T16:43:50;13.82;;;10.68;;
62832;SDS011;48891;49.220;6.920;2023-01-15T16:46:18;12.50;;;10.73;;
62832;SDS011;48891;49.220;6.920;2023-01-15T16:48:44;14.15;;;10.63;;
62832;SDS011;48891;49.220;6.920;2023-01-15T16:51:22;16.83;;;12.05;;
62832;SDS011;48891;49.220;6.920;2023-01-15T16:53:52;14.75;;;10.18;;
62832;SDS011;48891;49.220;6.920;2023-01-15T16:59:01;14.45;;;10.63;;
62832;SDS011;48891;49.220;6.920;2023-01-15T17:01:47;15.00;;;10.70;;
62832;SDS011;48891;49.220;6.920;2023-01-15T17:04:34;14.38;;;10.70;;
62832;SDS011;48891;49.220;6.920;2023-01-15T17:07:03;13.48;;;10.57;;
62832;SDS011;48891;49.220;6.920;2023-01-15T17:09:32;14.30;;;10.85;;
62832;SDS011;48891;49.220;6.920;2023-01-15T17:12:05;13.00;;;10.63;;
62832;SDS011;48891;49.220;6.920;2023-01-15T17:14:40;15.73;;;10.85;;